createdAt,value
2023-02-22T00:01:50.981Z,7.52
2023-02-22T00:04:21.213Z,7.53
2023-02-22T00:06:49.355Z,7.40
2023-02-22T00:09:20.700Z,7.56
2023-02-22T00:11:48.816Z,7.52
2023-02-22T00:14:20.412Z,7.64
2023-02-22T00:16:47.339Z,7.63
2023-02-22T00:19:14.027Z,7.77
2023-02-22T00:21:40.624Z,7.67
2023-02-22T00:24:23.107Z,7.82
2023-02-22T00:26:57.815Z,7.86
2023-02-22T00:29:25.306Z,7.92
2023-02-22T00:31:52.392Z,7.99
2023-02-22T00:34:19.237Z,7.87
2023-02-22T00:36:49.754Z,7.61
2023-02-22T00:39:16.667Z,7.72
2023-02-22T00:41:43.701Z,7.58
2023-02-22T00:44:10.666Z,7.78
2023-02-22T00:46:37.481Z,7.71
2023-02-22T00:49:05.365Z,7.59
2023-02-22T00:51:31.991Z,7.71
2023-02-22T00:53:58.623Z,7.76
2023-02-22T00:56:25.549Z,7.57
2023-02-22T00:58:52.105Z,7.40
2023-02-22T01:01:19.063Z,7.50
2023-02-22T01:03:46.055Z,7.40
2023-02-22T01:06:12.857Z,7.36
2023-02-22T01:08:45.101Z,7.32
2023-02-22T01:11:11.738Z,7.28
2023-02-22T01:13:38.723Z,7.14
2023-02-22T01:16:08.367Z,7.09
2023-02-22T01:18:38.057Z,7.09
2023-02-22T01:21:05.441Z,7.11
2023-02-22T01:23:32.239Z,6.91
2023-02-22T01:25:58.996Z,6.84
2023-02-22T01:28:25.721Z,6.74
2023-02-22T01:30:52.680Z,6.70
2023-02-22T01:33:19.300Z,6.50
2023-02-22T01:35:46.967Z,6.30
2023-02-22T01:38:14.447Z,6.15
2023-02-22T01:40:43.071Z,6.19
2023-02-22T01:43:31.123Z,6.13
2023-02-22T01:46:03.254Z,5.96
2023-02-22T01:48:29.764Z,5.84
2023-02-22T01:50:56.304Z,5.65
2023-02-22T01:53:32.420Z,5.35
2023-02-22T01:56:00.388Z,5.18
2023-02-22T01:58:30.008Z,5.20
2023-02-22T02:00:57.675Z,5.24
2023-02-22T02:03:29.780Z,5.05
2023-02-22T02:06:01.108Z,5.14
2023-02-22T02:08:49.834Z,5.29
2023-02-22T02:11:20.162Z,5.32
2023-02-22T02:13:49.685Z,5.20
2023-02-22T02:16:16.367Z,5.29
2023-02-22T02:18:43.104Z,5.34
2023-02-22T02:21:39.730Z,5.28
2023-02-22T02:24:24.345Z,5.29
2023-02-22T02:27:09.273Z,5.29
2023-02-22T02:29:56.040Z,5.12
2023-02-22T02:32:51.784Z,5.26
2023-02-22T02:35:43.703Z,5.20
2023-02-22T02:38:30.628Z,5.01
2023-02-22T02:41:13.765Z,5.13
2023-02-22T02:43:53.573Z,4.97
2023-02-22T02:46:31.776Z,4.70
2023-02-22T02:49:04.615Z,4.90
2023-02-22T02:51:38.912Z,4.58
2023-02-22T02:54:07.531Z,4.76
2023-02-22T02:56:34.894Z,4.65
2023-02-22T02:59:01.536Z,4.35
2023-02-22T03:02:00.579Z,4.30
2023-02-22T03:05:10.712Z,4.19
2023-02-22T03:08:01.680Z,4.14
2023-02-22T03:10:40.349Z,4.10
2023-02-22T03:13:40.253Z,4.13
2023-02-22T03:16:19.275Z,3.95
2023-02-22T03:19:05.046Z,4.15
2023-02-22T03:21:55.584Z,3.98
2023-02-22T03:24:28.665Z,4.03
2023-02-22T03:27:03.748Z,4.19
2023-02-22T03:29:36.733Z,4.00
2023-02-22T03:32:07.760Z,4.22
2023-02-22T03:34:38.725Z,4.13
2023-02-22T03:37:22.097Z,4.09
2023-02-22T03:39:54.218Z,4.08
2023-02-22T03:42:34.826Z,4.26
2023-02-22T03:45:05.188Z,4.08
2023-02-22T03:47:40.724Z,4.20
2023-02-22T03:50:15.798Z,4.14
2023-02-22T03:52:43.942Z,4.27
2023-02-22T03:55:12.773Z,4.26
2023-02-22T03:57:44.006Z,4.24
2023-02-22T04:00:14.845Z,4.31
2023-02-22T04:02:41.815Z,4.23
2023-02-22T04:05:08.870Z,4.28
2023-02-22T04:07:35.922Z,4.20
2023-02-22T04:10:03.708Z,4.36
2023-02-22T04:12:30.320Z,4.26
2023-02-22T04:14:56.927Z,4.22
2023-02-22T04:17:23.557Z,4.21
2023-02-22T04:19:50.290Z,4.09
2023-02-22T04:22:17.411Z,4.12
2023-02-22T04:24:44.111Z,4.04
2023-02-22T04:27:11.018Z,3.93
2023-02-22T04:29:37.642Z,3.81
2023-02-22T04:32:04.599Z,3.76
2023-02-22T04:34:31.182Z,3.72
2023-02-22T04:36:57.818Z,3.54
2023-02-22T04:39:24.544Z,3.54
2023-02-22T04:41:51.338Z,2.89
2023-02-22T04:44:17.916Z,3.45
2023-02-22T04:46:46.771Z,3.34
2023-02-22T04:49:13.608Z,3.15
2023-02-22T04:51:41.285Z,3.19
2023-02-22T04:54:08.511Z,3.14
2023-02-22T04:56:35.160Z,3.12
2023-02-22T04:59:01.945Z,3.07
2023-02-22T05:01:33.704Z,3.11
2023-02-22T05:04:02.971Z,3.02
2023-02-22T05:06:29.619Z,2.91
2023-02-22T05:08:56.298Z,2.75
2023-02-22T05:11:23.338Z,3.05
2023-02-22T05:13:50.374Z,2.96
2023-02-22T05:16:17.427Z,2.94
2023-02-22T05:18:44.060Z,2.94
2023-02-22T05:21:10.810Z,3.15
2023-02-22T05:23:37.445Z,3.27
2023-02-22T05:26:04.087Z,3.30
2023-02-22T05:28:30.705Z,3.24
2023-02-22T05:30:57.419Z,3.50
2023-02-22T05:33:24.090Z,3.56
2023-02-22T05:35:50.744Z,3.58
2023-02-22T05:38:17.364Z,4.19
2023-02-22T05:40:44.493Z,4.93
2023-02-22T05:43:11.117Z,5.74
2023-02-22T05:45:37.716Z,6.62
2023-02-22T05:48:04.614Z,7.58
2023-02-22T05:50:33.186Z,8.28
2023-02-22T05:52:59.959Z,8.71
2023-02-22T05:55:26.963Z,8.82
2023-02-22T05:57:53.808Z,9.00
2023-02-22T06:00:26.402Z,9.58
2023-02-22T06:03:08.166Z,10.11
2023-02-22T06:05:35.458Z,10.68
2023-02-22T06:08:03.310Z,11.06
2023-02-22T06:10:29.995Z,10.41
2023-02-22T06:12:57.491Z,9.90
2023-02-22T06:15:25.539Z,10.12
2023-02-22T06:17:52.889Z,10.36
2023-02-22T06:20:23.186Z,10.14
2023-02-22T06:22:53.700Z,9.96
2023-02-22T06:25:24.068Z,9.41
2023-02-22T06:27:51.054Z,8.97
2023-02-22T06:30:20.611Z,8.08
2023-02-22T06:32:47.291Z,7.86
2023-02-22T06:35:15.107Z,8.39
2023-02-22T06:37:41.727Z,8.86
2023-02-22T06:40:11.276Z,9.15
2023-02-22T06:42:39.095Z,8.95
2023-02-22T06:45:05.810Z,8.44
2023-02-22T06:47:32.530Z,7.88
2023-02-22T06:50:01.043Z,7.29
2023-02-22T06:52:27.723Z,7.35
2023-02-22T06:54:54.358Z,7.27
2023-02-22T06:57:21.038Z,7.42
2023-02-22T06:59:47.706Z,7.31
2023-02-22T07:02:15.048Z,7.72
2023-02-22T07:04:43.561Z,8.06
2023-02-22T07:07:10.686Z,8.15
2023-02-22T07:09:37.367Z,8.30
2023-02-22T07:12:04.120Z,8.49
2023-02-22T07:14:30.745Z,8.59
2023-02-22T07:16:57.361Z,8.48
2023-02-22T07:19:24.877Z,8.81
2023-02-22T07:21:57.033Z,8.78
2023-02-22T07:24:23.580Z,8.97
2023-02-22T07:26:50.138Z,9.29
2023-02-22T07:29:16.780Z,9.95
2023-02-22T07:31:43.433Z,10.22
2023-02-22T07:34:10.053Z,10.79
2023-02-22T07:36:36.604Z,10.32
2023-02-22T07:39:03.487Z,9.62
2023-02-22T07:41:30.119Z,9.63
2023-02-22T07:43:56.856Z,9.93
2023-02-22T07:46:23.455Z,9.92
2023-02-22T07:48:50.057Z,9.65
2023-02-22T07:51:18.223Z,9.88
2023-02-22T07:53:45.261Z,10.03
2023-02-22T07:56:11.982Z,10.19
2023-02-22T07:58:38.694Z,10.21
2023-02-22T08:01:05.547Z,10.12
2023-02-22T08:03:38.073Z,10.35
2023-02-22T08:06:06.614Z,10.34
2023-02-22T08:08:33.220Z,10.37
2023-02-22T08:10:59.870Z,10.43
2023-02-22T08:13:26.548Z,10.43
2023-02-22T08:15:54.457Z,10.76
2023-02-22T08:18:22.330Z,10.57
2023-02-22T08:20:52.129Z,10.84
2023-02-22T08:23:20.855Z,11.02
2023-02-22T08:25:47.473Z,10.91
2023-02-22T08:28:17.245Z,10.84
2023-02-22T08:30:44.061Z,11.21
2023-02-22T08:33:14.640Z,11.39
2023-02-22T08:35:41.429Z,11.73
2023-02-22T08:38:15.065Z,11.77
2023-02-22T08:40:41.658Z,12.37
2023-02-22T08:43:08.458Z,12.12
2023-02-22T08:45:35.133Z,12.42
2023-02-22T08:48:01.761Z,12.70
2023-02-22T08:50:31.140Z,12.84
2023-02-22T08:53:00.029Z,13.18
2023-02-22T08:55:32.301Z,13.38
2023-02-22T08:58:01.496Z,13.56
2023-02-22T09:00:30.753Z,13.91
2023-02-22T09:02:57.349Z,14.16
2023-02-22T09:05:23.978Z,14.32
2023-02-22T09:07:50.702Z,14.07
2023-02-22T09:10:21.003Z,14.23
2023-02-22T09:12:47.623Z,14.29
2023-02-22T09:15:15.498Z,14.42
2023-02-22T09:17:42.257Z,14.40
2023-02-22T09:20:10.129Z,14.56
2023-02-22T09:22:36.745Z,14.47
2023-02-22T09:25:15.849Z,14.55
2023-02-22T09:27:44.175Z,14.64
2023-02-22T09:30:34.234Z,15.04
2023-02-22T09:33:13.011Z,15.19
2023-02-22T09:35:46.489Z,14.42
2023-02-22T09:38:16.025Z,14.81
2023-02-22T09:40:54.364Z,15.18
2023-02-22T09:43:33.248Z,15.30
2023-02-22T09:46:21.441Z,15.56
2023-02-22T09:48:57.945Z,15.41
2023-02-22T09:51:29.037Z,15.42
2023-02-22T09:54:00.935Z,15.60
2023-02-22T09:56:29.989Z,15.59
2023-02-22T09:59:03.766Z,15.41
2023-02-22T10:01:39.147Z,15.54
2023-02-22T10:04:22.136Z,15.65
2023-02-22T10:07:15.770Z,15.97
2023-02-22T10:09:43.575Z,15.70
2023-02-22T10:12:53.316Z,15.52
2023-02-22T10:15:37.992Z,15.40
2023-02-22T10:18:26.334Z,15.53
2023-02-22T10:21:14.555Z,15.68
2023-02-22T10:23:55.739Z,15.98
2023-02-22T10:26:42.791Z,16.08
2023-02-22T10:29:12.338Z,16.35
2023-02-22T10:31:46.407Z,16.60
2023-02-22T10:34:17.167Z,16.87
2023-02-22T10:36:47.774Z,16.69
2023-02-22T10:39:35.257Z,16.77
2023-02-22T10:42:08.289Z,16.88
2023-02-22T10:44:40.602Z,16.82
2023-02-22T10:47:11.463Z,16.83
2023-02-22T10:49:42.333Z,17.23
2023-02-22T10:52:30.228Z,17.46
2023-02-22T10:55:14.033Z,17.53
2023-02-22T10:57:44.568Z,17.39
2023-02-22T11:00:26.349Z,17.30
2023-02-22T11:02:56.244Z,17.36
2023-02-22T11:05:38.486Z,17.59
2023-02-22T11:08:15.019Z,17.80
2023-02-22T11:10:43.355Z,17.80
2023-02-22T11:13:34.152Z,17.53
2023-02-22T11:16:19.254Z,17.42
2023-02-22T11:18:47.322Z,17.38
2023-02-22T11:21:22.835Z,17.53
2023-02-22T11:23:50.421Z,17.47
2023-02-22T11:26:20.468Z,17.75
2023-02-22T11:28:56.228Z,17.54
2023-02-22T11:31:32.121Z,17.42
2023-02-22T11:34:03.937Z,17.14
2023-02-22T11:36:40.607Z,17.36
2023-02-22T11:39:22.716Z,17.83
2023-02-22T11:41:51.864Z,18.06
2023-02-22T11:44:30.991Z,17.65
2023-02-22T11:47:06.779Z,17.73
2023-02-22T11:49:38.989Z,17.88
2023-02-22T11:52:29.144Z,17.76
2023-02-22T11:54:58.672Z,17.71
2023-02-22T11:57:37.071Z,17.72
2023-02-22T12:00:07.675Z,17.84
2023-02-22T12:03:10.266Z,17.60
2023-02-22T12:05:40.607Z,17.99
2023-02-22T12:08:20.074Z,17.88
2023-02-22T12:11:18.314Z,17.58
2023-02-22T12:14:12.801Z,17.90
2023-02-22T12:16:50.909Z,17.99
2023-02-22T12:19:22.128Z,17.78
2023-02-22T12:21:56.568Z,17.72
2023-02-22T12:24:30.513Z,17.66
2023-02-22T12:27:02.202Z,17.86
2023-02-22T12:29:38.516Z,18.12
2023-02-22T12:32:12.242Z,18.22
2023-02-22T12:34:47.630Z,18.08
2023-02-22T12:37:35.891Z,17.61
2023-02-22T12:40:13.561Z,17.42
2023-02-22T12:42:47.729Z,17.61
2023-02-22T12:45:40.991Z,17.60
2023-02-22T12:48:25.135Z,17.66
2023-02-22T12:51:18.608Z,17.92
2023-02-22T12:53:55.621Z,17.96
2023-02-22T12:56:31.978Z,18.29
2023-02-22T12:59:12.549Z,18.07
2023-02-22T13:01:43.046Z,17.94
2023-02-22T13:04:20.611Z,18.01
2023-02-22T13:07:04.803Z,18.27
2023-02-22T13:09:43.156Z,18.09
2023-02-22T13:12:36.370Z,17.92
2023-02-22T13:15:25.790Z,18.13
2023-02-22T13:18:25.474Z,18.23
2023-02-22T13:21:28.029Z,18.27
2023-02-22T13:24:03.650Z,18.08
2023-02-22T13:26:45.430Z,18.11
2023-02-22T13:29:17.993Z,18.12
2023-02-22T13:32:09.634Z,18.14
2023-02-22T13:35:21.479Z,18.27
2023-02-22T13:38:25.288Z,18.18
2023-02-22T13:41:12.126Z,18.32
2023-02-22T13:43:41.504Z,18.49
2023-02-22T13:46:08.123Z,18.74
2023-02-22T13:48:44.892Z,18.81
2023-02-22T13:51:33.005Z,18.53
2023-02-22T13:54:09.529Z,18.42
2023-02-22T13:56:36.303Z,18.27
2023-02-22T13:59:04.790Z,18.10
2023-02-22T14:01:49.122Z,17.94
2023-02-22T14:04:42.281Z,17.94
2023-02-22T14:07:25.137Z,17.87
2023-02-22T14:09:56.570Z,17.89
2023-02-22T14:12:35.084Z,18.03
2023-02-22T14:15:27.769Z,18.04
2023-02-22T14:18:01.155Z,17.91
2023-02-22T14:20:35.150Z,17.57
2023-02-22T14:23:43.122Z,17.84
2023-02-22T14:26:31.749Z,17.72
2023-02-22T14:29:21.725Z,17.68
2023-02-22T14:31:50.067Z,17.82
2023-02-22T14:34:18.948Z,17.83
2023-02-22T14:36:54.615Z,17.92
2023-02-22T14:39:39.473Z,18.01
2023-02-22T14:42:08.358Z,17.84
2023-02-22T14:44:41.960Z,17.84
2023-02-22T14:47:20.150Z,17.56
2023-02-22T14:49:49.492Z,17.29
2023-02-22T14:52:24.474Z,17.24
2023-02-22T14:55:17.808Z,17.30
2023-02-22T14:57:48.420Z,17.19
2023-02-22T15:00:23.249Z,17.12
2023-02-22T15:02:57.346Z,16.96
2023-02-22T15:05:24.148Z,17.05
2023-02-22T15:07:56.466Z,17.05
2023-02-22T15:10:38.644Z,16.92
2023-02-22T15:13:13.073Z,17.11
2023-02-22T15:15:47.456Z,16.88
2023-02-22T15:18:43.200Z,16.81
2023-02-22T15:21:17.847Z,16.90
2023-02-22T15:23:55.201Z,16.90
2023-02-22T15:26:37.434Z,16.70
2023-02-22T15:29:18.523Z,16.75
2023-02-22T15:31:48.307Z,16.70
2023-02-22T15:34:15.377Z,16.59
2023-02-22T15:36:43.633Z,16.37
2023-02-22T15:39:25.645Z,16.14
2023-02-22T15:42:19.375Z,16.17
2023-02-22T15:44:48.023Z,16.03
2023-02-22T15:47:27.480Z,15.95
2023-02-22T15:50:25.953Z,15.90
2023-02-22T15:53:00.732Z,15.68
2023-02-22T15:55:32.655Z,15.63
2023-02-22T15:58:15.997Z,15.40
2023-02-22T16:00:51.276Z,15.34
2023-02-22T16:03:28.292Z,15.22
2023-02-22T16:05:57.062Z,15.14
2023-02-22T16:08:31.250Z,14.96
2023-02-22T16:11:35.224Z,14.89
2023-02-22T16:14:05.942Z,14.83
2023-02-22T16:16:35.549Z,14.71
2023-02-22T16:19:37.262Z,14.53
2023-02-22T16:22:10.382Z,14.52
2023-02-22T16:24:37.531Z,14.33
2023-02-22T16:27:13.041Z,14.28
2023-02-22T16:29:39.744Z,14.07
2023-02-22T16:32:06.519Z,14.15
2023-02-22T16:34:33.146Z,14.00
2023-02-22T16:36:59.738Z,13.85
2023-02-22T16:39:27.640Z,13.76
2023-02-22T16:41:57.012Z,13.47
2023-02-22T16:44:27.438Z,13.51
2023-02-22T16:46:59.772Z,13.48
2023-02-22T16:49:26.669Z,13.38
2023-02-22T16:51:56.080Z,13.31
2023-02-22T16:54:29.431Z,13.29
2023-02-22T16:56:57.601Z,13.15
2023-02-22T16:59:24.167Z,12.95
2023-02-22T17:01:50.873Z,12.94
2023-02-22T17:04:28.772Z,12.91
2023-02-22T17:06:55.379Z,12.87
2023-02-22T17:09:22.215Z,12.66
2023-02-22T17:11:51.511Z,12.83
2023-02-22T17:14:23.162Z,12.80
2023-02-22T17:16:53.125Z,12.71
2023-02-22T17:19:22.802Z,12.40
2023-02-22T17:21:49.905Z,12.59
2023-02-22T17:24:29.233Z,12.57
2023-02-22T17:26:57.523Z,12.57
2023-02-22T17:29:24.484Z,12.64
2023-02-22T17:31:52.591Z,12.46
2023-02-22T17:34:19.288Z,12.47
2023-02-22T17:36:46.088Z,12.43
2023-02-22T17:39:13.564Z,12.34
2023-02-22T17:41:40.802Z,12.28
2023-02-22T17:44:07.728Z,12.22
2023-02-22T17:46:36.137Z,12.20
2023-02-22T17:49:03.413Z,11.95
2023-02-22T17:51:30.077Z,11.54
2023-02-22T17:53:56.674Z,11.59
2023-02-22T17:56:23.312Z,11.41
2023-02-22T17:58:53.607Z,11.24
2023-02-22T18:01:29.385Z,11.04
2023-02-22T18:04:01.447Z,10.84
2023-02-22T18:06:32.717Z,10.88
2023-02-22T18:09:00.839Z,10.84
2023-02-22T18:11:28.971Z,10.81
2023-02-22T18:13:57.202Z,10.86
2023-02-22T18:16:27.750Z,10.93
2023-02-22T18:18:55.779Z,10.88
2023-02-22T18:21:23.552Z,10.77
2023-02-22T18:23:50.204Z,10.87
2023-02-22T18:26:19.890Z,11.00
2023-02-22T18:28:48.741Z,10.98
2023-02-22T18:31:20.325Z,11.05
2023-02-22T18:33:49.600Z,11.00
2023-02-22T18:36:17.630Z,11.06
2023-02-22T18:38:44.976Z,11.06
2023-02-22T18:41:14.231Z,11.01
2023-02-22T18:43:41.064Z,11.02
2023-02-22T18:46:14.432Z,11.09
2023-02-22T18:48:41.189Z,10.96
2023-02-22T18:51:10.744Z,11.05
2023-02-22T18:53:39.197Z,10.76
2023-02-22T18:56:08.585Z,10.88
2023-02-22T18:58:36.160Z,10.90
2023-02-22T19:01:03.855Z,10.97
2023-02-22T19:03:30.645Z,10.88
2023-02-22T19:06:06.640Z,11.05
2023-02-22T19:08:33.247Z,10.76
2023-02-22T19:11:04.566Z,10.70
2023-02-22T19:13:32.257Z,10.75
2023-02-22T19:16:02.486Z,10.63
2023-02-22T19:18:30.722Z,10.75
2023-02-22T19:21:02.437Z,10.66
2023-02-22T19:23:34.234Z,10.66
2023-02-22T19:26:02.432Z,10.73
2023-02-22T19:28:34.068Z,10.47
2023-02-22T19:31:19.339Z,10.46
2023-02-22T19:33:50.974Z,10.38
2023-02-22T19:36:18.810Z,10.41
2023-02-22T19:38:45.627Z,10.33
2023-02-22T19:41:21.865Z,10.33
2023-02-22T19:43:50.612Z,10.26
2023-02-22T19:46:21.459Z,10.25
2023-02-22T19:48:52.490Z,10.10
2023-02-22T19:51:21.269Z,10.27
2023-02-22T19:53:47.925Z,10.14
2023-02-22T19:56:17.544Z,10.05
2023-02-22T19:58:46.200Z,9.99
2023-02-22T20:01:13.367Z,9.85
2023-02-22T20:03:42.140Z,9.68
2023-02-22T20:06:10.617Z,9.48
2023-02-22T20:08:42.139Z,9.30
2023-02-22T20:11:10.632Z,9.16
2023-02-22T20:13:41.253Z,9.01
2023-02-22T20:16:09.978Z,8.84
2023-02-22T20:18:37.093Z,8.86
2023-02-22T20:21:09.326Z,8.71
2023-02-22T20:23:36.126Z,8.74
2023-02-22T20:26:02.969Z,8.66
2023-02-22T20:28:30.019Z,8.38
2023-02-22T20:30:56.645Z,8.49
2023-02-22T20:33:23.722Z,8.31
2023-02-22T20:35:50.405Z,8.31
2023-02-22T20:38:19.289Z,8.61
2023-02-22T20:40:46.867Z,8.54
2023-02-22T20:43:13.549Z,8.68
2023-02-22T20:45:40.236Z,8.76
2023-02-22T20:48:06.966Z,8.75
2023-02-22T20:50:35.444Z,8.77
2023-02-22T20:53:02.058Z,8.85
2023-02-22T20:55:28.784Z,8.81
2023-02-22T20:57:55.363Z,8.77
2023-02-22T21:00:22.161Z,8.92
2023-02-22T21:02:48.830Z,8.82
2023-02-22T21:05:15.611Z,8.79
2023-02-22T21:07:42.386Z,8.87
2023-02-22T21:10:09.146Z,8.81
2023-02-22T21:12:35.984Z,8.60
2023-02-22T21:15:02.721Z,8.69
2023-02-22T21:17:30.870Z,8.48
2023-02-22T21:19:58.469Z,8.50
2023-02-22T21:22:25.725Z,8.40
2023-02-22T21:24:52.379Z,8.35
2023-02-22T21:27:19.147Z,8.20
2023-02-22T21:29:45.816Z,8.05
2023-02-22T21:32:13.803Z,8.18
2023-02-22T21:34:40.818Z,8.17
2023-02-22T21:37:08.338Z,8.11
2023-02-22T21:39:35.488Z,8.16
2023-02-22T21:42:02.667Z,8.07
2023-02-22T21:44:30.056Z,7.91
2023-02-22T21:46:57.245Z,7.91
2023-02-22T21:49:25.046Z,7.79
2023-02-22T21:51:52.626Z,7.99
2023-02-22T21:54:19.852Z,7.90
2023-02-22T21:56:46.618Z,7.84
2023-02-22T21:59:18.898Z,7.98
2023-02-22T22:01:47.219Z,7.86
2023-02-22T22:04:19.054Z,7.57
2023-02-22T22:06:51.178Z,7.27
2023-02-22T22:09:18.640Z,7.05
2023-02-22T22:12:00.505Z,6.79
2023-02-22T22:14:28.187Z,6.69
2023-02-22T22:17:00.275Z,6.28
2023-02-22T22:19:29.366Z,6.34
2023-02-22T22:21:57.456Z,6.08
2023-02-22T22:24:24.905Z,6.20
2023-02-22T22:26:54.621Z,6.20
2023-02-22T22:29:23.738Z,6.12
2023-02-22T22:31:51.736Z,6.20
2023-02-22T22:34:19.502Z,6.05
2023-02-22T22:36:46.757Z,6.11
2023-02-22T22:39:13.822Z,5.97
2023-02-22T22:41:44.110Z,6.18
2023-02-22T22:44:12.224Z,6.11
2023-02-22T22:46:41.832Z,6.07
2023-02-22T22:49:12.739Z,6.00
2023-02-22T22:51:42.943Z,5.95
2023-02-22T22:54:10.481Z,6.11
2023-02-22T22:56:38.685Z,6.10
2023-02-22T22:59:07.838Z,5.93
2023-02-22T23:01:39.412Z,6.00
2023-02-22T23:04:09.469Z,5.94
2023-02-22T23:06:41.738Z,5.97
2023-02-22T23:09:21.689Z,6.00
2023-02-22T23:11:53.800Z,5.84
2023-02-22T23:14:26.651Z,5.81
2023-02-22T23:17:03.222Z,5.65
2023-02-22T23:19:31.085Z,5.66
2023-02-22T23:21:59.210Z,5.58
2023-02-22T23:24:29.070Z,5.48
2023-02-22T23:26:59.929Z,5.67
2023-02-22T23:29:28.798Z,5.67
2023-02-22T23:31:55.862Z,5.30
2023-02-22T23:34:23.241Z,5.20
2023-02-22T23:36:54.253Z,5.01
2023-02-22T23:39:22.458Z,4.99
2023-02-22T23:41:59.412Z,5.13
2023-02-22T23:44:27.483Z,5.12
2023-02-22T23:46:57.319Z,5.02
2023-02-22T23:49:27.154Z,5.17
2023-02-22T23:51:54.524Z,5.32
2023-02-22T23:54:21.689Z,5.40
2023-02-22T23:56:57.627Z,5.47
2023-02-22T23:59:28.571Z,5.64
